SAS885 ESSA-ENGM
Flight info
| Callsign | SAS885 |
|---|---|
| Flight time | N/A |
| Altitude | 34000 |
| Route | ARS N623 IBGAX DCT EBURI N623 ESEBA |
| Aircraft | A320/M-SDE3FGHIJ1RWXYZ/ALB1 |
Departure
| Time | 2026-05-06 15:06 |
|---|---|
| Airport | Stockholm-Arlanda Airport (ESSA) |
Arrival
| Time | N/A |
|---|---|
| Airport | Oslo-Gardermoen International Airport (ENGM) |
| Time | Latitude | Longitude | Altitude | Speed | Heading |
|---|---|---|---|---|---|
| 2026-05-06 14:52 | 59.65330 | 17.93143 | 137 ft | 0 kts | 252° |
| 2026-05-06 14:58 | 59.65331 | 17.93146 | 137 ft | 1 kts | 252° |
| 2026-05-06 14:58 | 59.65336 | 17.93180 | 137 ft | 3 kts | 258° |
| 2026-05-06 14:58 | 59.65339 | 17.93219 | 137 ft | 3 kts | 268° |
| 2026-05-06 14:58 | 59.65337 | 17.93258 | 137 ft | 3 kts | 288° |
| 2026-05-06 14:59 | 59.65329 | 17.93288 | 137 ft | 3 kts | 331° |
| 2026-05-06 14:59 | 59.65321 | 17.93296 | 137 ft | 1 kts | 346° |
| 2026-05-06 14:59 | 59.65319 | 17.93296 | 137 ft | 0 kts | 346° |
| 2026-05-06 15:00 | 59.65320 | 17.93296 | 137 ft | 1 kts | 346° |
| 2026-05-06 15:01 | 59.65323 | 17.93294 | 137 ft | 2 kts | 346° |
| 2026-05-06 15:01 | 59.65361 | 17.93276 | 137 ft | 9 kts | 346° |
| 2026-05-06 15:01 | 59.65430 | 17.93240 | 137 ft | 8 kts | 343° |
| 2026-05-06 15:01 | 59.65485 | 17.93177 | 137 ft | 11 kts | 319° |
| 2026-05-06 15:02 | 59.65495 | 17.93027 | 138 ft | 13 kts | 248° |
| 2026-05-06 15:02 | 59.65458 | 17.92837 | 138 ft | 16 kts | 249° |
| 2026-05-06 15:02 | 59.65437 | 17.92634 | 138 ft | 12 kts | 293° |
| 2026-05-06 15:02 | 59.65520 | 17.92545 | 138 ft | 15 kts | 340° |
| 2026-05-06 15:03 | 59.65631 | 17.92471 | 138 ft | 18 kts | 349° |
| 2026-05-06 15:03 | 59.65760 | 17.92429 | 138 ft | 17 kts | 1° |
| 2026-05-06 15:03 | 59.65843 | 17.92457 | 138 ft | 9 kts | 11° |
| 2026-05-06 15:03 | 59.65900 | 17.92428 | 138 ft | 8 kts | 313° |
| 2026-05-06 15:04 | 59.65915 | 17.92330 | 139 ft | 0 kts | 281° |
| 2026-05-06 15:04 | 59.65915 | 17.92329 | 139 ft | 1 kts | 281° |
| 2026-05-06 15:05 | 59.65924 | 17.92179 | 145 ft | 17 kts | 256° |
| 2026-05-06 15:05 | 59.65835 | 17.92085 | 145 ft | 16 kts | 191° |
| 2026-05-06 15:05 | 59.65509 | 17.91970 | 144 ft | 81 kts | 191° |
| 2026-05-06 15:05 | 59.64760 | 17.91689 | 147 ft | 134 kts | 190° |
| 2026-05-06 15:06 | 59.63826 | 17.91386 | 680 ft | 127 kts | 191° |
| 2026-05-06 15:06 | 59.62951 | 17.91085 | 1174 ft | 128 kts | 189° |
| 2026-05-06 15:06 | 59.62027 | 17.90706 | 1442 ft | 148 kts | 199° |
| 2026-05-06 15:06 | 59.61126 | 17.89307 | 1535 ft | 183 kts | 234° |
| 2026-05-06 15:07 | 59.60412 | 17.87029 | 1825 ft | 207 kts | 234° |
| 2026-05-06 15:07 | 59.59602 | 17.84484 | 2394 ft | 220 kts | 238° |
| 2026-05-06 15:07 | 59.58785 | 17.81915 | 3231 ft | 223 kts | 239° |
| 2026-05-06 15:07 | 59.58045 | 17.79105 | 3791 ft | 243 kts | 243° |
| 2026-05-06 15:08 | 59.57268 | 17.76069 | 4505 ft | 255 kts | 245° |
| 2026-05-06 15:08 | 59.56787 | 17.72685 | 5422 ft | 260 kts | 263° |
| 2026-05-06 15:08 | 59.56769 | 17.70260 | 6057 ft | 262 kts | 272° |
| 2026-05-06 15:08 | 59.56859 | 17.66654 | 6981 ft | 264 kts | 272° |
| 2026-05-06 15:09 | 59.56944 | 17.63023 | 7891 ft | 266 kts | 272° |
| 2026-05-06 15:09 | 59.57024 | 17.59355 | 8812 ft | 268 kts | 272° |
| 2026-05-06 15:09 | 59.57101 | 17.55674 | 9722 ft | 269 kts | 272° |
| 2026-05-06 15:09 | 59.57175 | 17.51943 | 10371 ft | 280 kts | 272° |
| 2026-05-06 15:10 | 59.57254 | 17.47959 | 10597 ft | 302 kts | 272° |
| 2026-05-06 15:10 | 59.57336 | 17.43727 | 11126 ft | 311 kts | 272° |
| 2026-05-06 15:10 | 59.57419 | 17.39483 | 11837 ft | 315 kts | 272° |
| 2026-05-06 15:10 | 59.57504 | 17.35022 | 12606 ft | 318 kts | 272° |
| 2026-05-06 15:11 | 59.57587 | 17.30552 | 13375 ft | 321 kts | 271° |
| 2026-05-06 15:11 | 59.57668 | 17.26063 | 14085 ft | 323 kts | 271° |
| 2026-05-06 15:11 | 59.57745 | 17.21701 | 14740 ft | 325 kts | 271° |
| 2026-05-06 15:11 | 59.57823 | 17.17225 | 15409 ft | 327 kts | 271° |
| 2026-05-06 15:12 | 59.57898 | 17.12740 | 16126 ft | 327 kts | 270° |
| 2026-05-06 15:12 | 59.57972 | 17.08250 | 16821 ft | 328 kts | 270° |
| 2026-05-06 15:12 | 59.58046 | 17.03745 | 17508 ft | 329 kts | 270° |
| 2026-05-06 15:12 | 59.58122 | 16.99150 | 18198 ft | 331 kts | 270° |
| 2026-05-06 15:13 | 59.58196 | 16.94604 | 18807 ft | 332 kts | 270° |
| 2026-05-06 15:13 | 59.58268 | 16.90026 | 19419 ft | 334 kts | 269° |
| 2026-05-06 15:13 | 59.58337 | 16.85435 | 20040 ft | 335 kts | 269° |
| 2026-05-06 15:13 | 59.58404 | 16.80755 | 20674 ft | 337 kts | 269° |
| 2026-05-06 15:14 | 59.58467 | 16.76112 | 21285 ft | 339 kts | 268° |
| 2026-05-06 15:14 | 59.58528 | 16.71446 | 21870 ft | 341 kts | 268° |
| 2026-05-06 15:14 | 59.58595 | 16.66760 | 22470 ft | 343 kts | 269° |
| 2026-05-06 15:14 | 59.58918 | 16.62043 | 23020 ft | 349 kts | 276° |
| 2026-05-06 15:15 | 59.59406 | 16.57340 | 23573 ft | 351 kts | 276° |
| 2026-05-06 15:15 | 59.59891 | 16.52598 | 24019 ft | 353 kts | 276° |
| 2026-05-06 15:15 | 59.60375 | 16.47800 | 24498 ft | 355 kts | 275° |
| 2026-05-06 15:15 | 59.60855 | 16.43012 | 24937 ft | 357 kts | 275° |
| 2026-05-06 15:16 | 59.61339 | 16.38179 | 25367 ft | 359 kts | 275° |
| 2026-05-06 15:16 | 59.61822 | 16.33323 | 25795 ft | 361 kts | 275° |
| 2026-05-06 15:16 | 59.62306 | 16.28430 | 26213 ft | 362 kts | 275° |
| 2026-05-06 15:16 | 59.62787 | 16.23530 | 26626 ft | 364 kts | 274° |
| 2026-05-06 15:17 | 59.63291 | 16.18606 | 27025 ft | 367 kts | 275° |
| 2026-05-06 15:17 | 59.63844 | 16.13671 | 27420 ft | 369 kts | 276° |
| 2026-05-06 15:17 | 59.64424 | 16.08715 | 27804 ft | 372 kts | 276° |
| 2026-05-06 15:17 | 59.65019 | 16.03707 | 28199 ft | 373 kts | 276° |
| 2026-05-06 15:18 | 59.65614 | 15.98681 | 28588 ft | 375 kts | 275° |
| 2026-05-06 15:18 | 59.66204 | 15.93642 | 28971 ft | 377 kts | 275° |
| 2026-05-06 15:18 | 59.66781 | 15.88630 | 29345 ft | 379 kts | 275° |
| 2026-05-06 15:18 | 59.67361 | 15.83532 | 29743 ft | 380 kts | 275° |
| 2026-05-06 15:19 | 59.67935 | 15.78407 | 30101 ft | 382 kts | 274° |
| 2026-05-06 15:19 | 59.68520 | 15.73174 | 30396 ft | 385 kts | 274° |
| 2026-05-06 15:19 | 59.69112 | 15.67855 | 30690 ft | 387 kts | 274° |
| 2026-05-06 15:19 | 59.69690 | 15.62639 | 31077 ft | 387 kts | 274° |
| 2026-05-06 15:20 | 59.70265 | 15.57428 | 31461 ft | 387 kts | 274° |
| 2026-05-06 15:20 | 59.70847 | 15.52128 | 31852 ft | 387 kts | 274° |
| 2026-05-06 15:20 | 59.71413 | 15.46940 | 32238 ft | 387 kts | 274° |
| 2026-05-06 15:20 | 59.71980 | 15.41728 | 32618 ft | 387 kts | 274° |
| 2026-05-06 15:21 | 59.72556 | 15.36450 | 33000 ft | 387 kts | 274° |
| 2026-05-06 15:21 | 59.73127 | 15.31213 | 33394 ft | 387 kts | 275° |
| 2026-05-06 15:21 | 59.73695 | 15.25995 | 33787 ft | 388 kts | 275° |